Time;durP1;ratioP1;P1;durP2;ratioP2;P2;SDS_P1;SDS_P2;PMS_P1;PMS_P2;Temp;Humidity;BMP_temperature;BMP_pressure;BME280_temperature;BME280_humidity;BME280_pressure;Samples;Min_cycle;Max_cycle;Signal;HPM_P1;HPM_P2
2021/10/07 00:00:38;;;;;;;12.50;11.20;;;7.90;99.90;;;;;;5049183;28;20063;-72
2021/10/07 00:03:04;;;;;;;10.50;9.50;;;7.90;99.90;;;;;;5050336;28;20078;-71
2021/10/07 00:05:30;;;;;;;23.17;15.63;;;7.90;99.90;;;;;;5050184;28;20037;-71
2021/10/07 00:07:56;;;;;;;49.92;13.18;;;7.80;99.90;;;;;;5033168;28;20040;-71
2021/10/07 00:10:22;;;;;;;11.45;10.25;;;7.80;99.90;;;;;;5033212;28;20154;-71
2021/10/07 00:12:48;;;;;;;10.77;9.68;;;7.70;99.90;;;;;;5032908;28;20048;-71
2021/10/07 00:15:14;;;;;;;13.45;10.55;;;7.70;99.90;;;;;;5033321;28;20060;-71
2021/10/07 00:17:39;;;;;;;10.52;9.43;;;7.70;99.90;;;;;;5049024;28;20043;-72
2021/10/07 00:20:07;;;;;;;9.18;8.05;;;7.70;99.90;;;;;;5047120;28;20075;-72
2021/10/07 00:22:33;;;;;;;10.30;9.18;;;7.70;99.90;;;;;;5049421;28;20041;-71
2021/10/07 00:24:59;;;;;;;9.13;8.23;;;7.70;99.90;;;;;;5047666;28;20040;-71
2021/10/07 00:27:24;;;;;;;19.60;14.18;;;7.70;99.90;;;;;;5032683;28;20089;-71
2021/10/07 00:29:54;;;;;;;10.40;9.30;;;7.60;99.90;;;;;;5048483;28;20044;-71
2021/10/07 00:32:23;;;;;;;12.02;10.82;;;7.60;99.90;;;;;;5049990;28;20415;-72
2021/10/07 00:40:15;;;;;;;13.48;10.13;;;7.60;99.90;;;;;;5032219;28;20049;-71
2021/10/07 00:42:41;;;;;;;10.32;9.32;;;7.50;99.90;;;;;;5049043;28;20047;-71
2021/10/07 00:45:07;;;;;;;12.07;10.70;;;7.50;99.90;;;;;;5040684;28;20044;-71
2021/10/07 00:47:33;;;;;;;13.60;11.98;;;7.40;99.90;;;;;;5047072;28;20129;-72
2021/10/07 00:49:59;;;;;;;25.17;15.98;;;7.50;99.90;;;;;;5049400;28;20630;-71
2021/10/07 00:52:25;;;;;;;12.07;10.43;;;7.50;99.90;;;;;;5048998;28;20041;-71
2021/10/07 00:54:54;;;;;;;11.60;9.65;;;7.40;99.90;;;;;;5032029;28;20039;-71
2021/10/07 00:57:22;;;;;;;10.90;9.77;;;7.40;99.90;;;;;;5049078;28;20132;-71
2021/10/07 00:59:50;;;;;;;11.73;10.52;;;7.40;99.90;;;;;;5048067;28;20165;-71
2021/10/07 01:02:16;;;;;;;11.68;9.27;;;7.40;99.90;;;;;;5047970;28;20522;-71
2021/10/07 01:04:43;;;;;;;9.77;8.48;;;7.40;99.90;;;;;;5030800;28;20499;-71
2021/10/07 01:07:11;;;;;;;10.23;9.23;;;7.40;99.90;;;;;;5049227;28;20086;-71
2021/10/07 01:09:39;;;;;;;9.90;8.80;;;7.30;99.90;;;;;;5048520;28;20051;-71
2021/10/07 01:12:08;;;;;;;7.35;6.63;;;7.20;99.90;;;;;;5032591;28;20055;-71
2021/10/07 01:14:50;;;;;;;8.68;6.40;;;7.20;99.90;;;;;;5048553;28;20078;-72
2021/10/07 01:17:22;;;;;;;7.40;6.30;;;7.20;99.90;;;;;;5048029;28;20053;-71
2021/10/07 01:19:50;;;;;;;9.30;7.35;;;7.20;99.90;;;;;;5048326;28;20082;-71
2021/10/07 01:22:17;;;;;;;8.30;7.38;;;7.20;99.90;;;;;;5032222;28;20076;-71
2021/10/07 01:24:43;;;;;;;21.95;12.00;;;7.20;99.90;;;;;;5046348;28;20102;-69
2021/10/07 01:27:10;;;;;;;8.15;6.90;;;7.20;99.90;;;;;;5032406;28;20048;-70
2021/10/07 01:29:37;;;;;;;9.32;8.13;;;7.20;99.90;;;;;;5029725;28;20099;-73
2021/10/07 01:32:04;;;;;;;9.15;7.63;;;7.20;99.90;;;;;;5048442;28;20066;-74
2021/10/07 01:34:30;;;;;;;14.20;10.75;;;7.20;99.90;;;;;;5032395;28;20069;-74
2021/10/07 01:36:57;;;;;;;29.80;15.32;;;7.20;99.90;;;;;;5047345;28;20098;-74
2021/10/07 01:39:24;;;;;;;18.35;13.93;;;7.20;99.90;;;;;;5048182;28;20098;-74
2021/10/07 01:41:50;;;;;;;11.65;10.45;;;7.20;99.90;;;;;;5030716;28;20045;-73
2021/10/07 01:44:21;;;;;;;12.18;10.43;;;7.20;99.90;;;;;;5048509;28;20051;-74
2021/10/07 01:46:47;;;;;;;10.30;9.15;;;7.20;99.90;;;;;;5030778;28;20049;-73
2021/10/07 01:49:13;;;;;;;11.43;9.60;;;7.20;99.90;;;;;;5031838;28;20083;-74
2021/10/07 01:51:38;;;;;;;24.70;15.35;;;7.10;99.90;;;;;;5047725;28;20069;-74
2021/10/07 01:54:05;;;;;;;9.35;8.27;;;7.10;99.90;;;;;;5032026;28;20048;-70
2021/10/07 01:56:32;;;;;;;10.18;9.18;;;7.10;99.90;;;;;;5048864;28;20434;-70
2021/10/07 01:58:58;;;;;;;8.63;7.63;;;7.10;99.90;;;;;;5030492;28;20598;-70
2021/10/07 02:01:24;;;;;;;9.05;8.15;;;7.00;99.90;;;;;;5059047;28;20056;-70
2021/10/07 02:03:51;;;;;;;11.20;9.88;;;7.00;99.90;;;;;;5046713;28;20037;-70
2021/10/07 02:06:16;;;;;;;26.45;13.77;;;6.90;99.90;;;;;;5048111;28;20059;-70
2021/10/07 02:08:42;;;;;;;22.00;13.85;;;6.90;99.90;;;;;;5047668;28;20048;-70
2021/10/07 02:11:08;;;;;;;25.77;15.85;;;6.90;99.90;;;;;;5050768;28;20052;-70
2021/10/07 02:13:34;;;;;;;12.68;11.27;;;6.90;99.90;;;;;;5051928;28;20560;-70
2021/10/07 02:16:00;;;;;;;12.48;11.18;;;6.90;99.90;;;;;;5052188;28;20033;-70
2021/10/07 02:18:26;;;;;;;12.43;10.88;;;6.90;99.90;;;;;;5052234;28;20096;-70
2021/10/07 02:20:53;;;;;;;13.85;11.70;;;6.90;99.90;;;;;;5035139;28;20505;-70
2021/10/07 02:23:22;;;;;;;19.00;14.65;;;6.90;99.90;;;;;;5051817;28;20044;-70
2021/10/07 02:25:48;;;;;;;24.15;16.27;;;6.90;99.90;;;;;;5051658;28;20043;-70
2021/10/07 02:28:14;;;;;;;20.10;14.50;;;6.80;99.90;;;;;;5035762;28;20097;-70
2021/10/07 02:30:41;;;;;;;30.58;18.13;;;6.90;99.90;;;;;;5050830;28;20115;-70
2021/10/07 02:33:07;;;;;;;35.55;17.75;;;6.90;99.90;;;;;;5035047;28;20048;-70
2021/10/07 02:35:34;;;;;;;29.75;18.33;;;6.90;99.90;;;;;;5034318;28;20055;-70
2021/10/07 02:38:00;;;;;;;25.52;16.77;;;6.80;99.90;;;;;;5051202;28;20131;-70
2021/10/07 02:40:27;;;;;;;28.95;18.90;;;6.80;99.90;;;;;;5035189;28;20037;-70
2021/10/07 02:42:55;;;;;;;14.20;11.73;;;6.80;99.90;;;;;;5034140;28;20085;-70
2021/10/07 02:45:22;;;;;;;59.80;25.42;;;6.80;99.90;;;;;;5052116;28;20547;-70
2021/10/07 02:47:51;;;;;;;44.67;21.70;;;6.90;99.90;;;;;;5032854;28;20028;-70
2021/10/07 02:50:18;;;;;;;86.32;22.17;;;6.90;99.90;;;;;;5051514;28;20127;-70
2021/10/07 02:52:45;;;;;;;19.83;16.95;;;6.90;99.90;;;;;;5051238;28;20103;-69
2021/10/07 02:55:10;;;;;;;25.77;18.40;;;7.00;99.90;;;;;;5051568;28;20044;-74
2021/10/07 02:57:37;;;;;;;25.85;19.20;;;7.00;99.90;;;;;;5034425;28;20090;-74
2021/10/07 03:00:08;;;;;;;19.33;14.90;;;7.10;99.90;;;;;;5050283;28;20064;-74
2021/10/07 03:02:33;;;;;;;19.08;15.60;;;7.10;99.90;;;;;;5049108;28;20110;-75
2021/10/07 03:04:59;;;;;;;16.20;13.70;;;7.10;99.90;;;;;;5034637;28;20033;-74
2021/10/07 03:07:25;;;;;;;24.25;17.30;;;7.10;99.90;;;;;;5051405;28;20040;-74
2021/10/07 03:09:50;;;;;;;23.23;17.25;;;7.10;99.90;;;;;;5050749;28;20036;-74
2021/10/07 03:12:16;;;;;;;20.52;16.42;;;7.20;99.90;;;;;;5051075;28;20044;-74
2021/10/07 03:14:42;;;;;;;18.25;14.68;;;7.20;99.90;;;;;;5051114;28;20056;-74
2021/10/07 03:17:12;;;;;;;21.67;14.30;;;7.20;99.90;;;;;;5051108;28;20110;-70
2021/10/07 03:19:39;;;;;;;19.10;14.57;;;7.10;99.90;;;;;;5034624;28;20046;-70
2021/10/07 03:22:06;;;;;;;20.30;14.43;;;7.10;99.90;;;;;;5031493;28;20048;-70
2021/10/07 03:24:32;;;;;;;27.88;18.55;;;7.10;99.90;;;;;;5051179;28;20083;-70
2021/10/07 03:26:59;;;;;;;46.63;19.30;;;7.10;99.90;;;;;;5033977;28;20513;-70
2021/10/07 03:29:25;;;;;;;51.35;20.08;;;7.20;99.90;;;;;;5049676;28;20032;-70
2021/10/07 03:31:51;;;;;;;61.42;21.50;;;7.20;99.90;;;;;;5050973;28;20507;-70
2021/10/07 03:34:16;;;;;;;65.28;21.30;;;7.30;99.90;;;;;;5050388;28;20082;-69
2021/10/07 03:36:42;;;;;;;96.60;23.80;;;7.30;99.90;;;;;;5049428;28;20040;-69
2021/10/07 03:39:08;;;;;;;73.50;23.17;;;7.40;99.90;;;;;;5033948;28;20043;-70
2021/10/07 03:41:34;;;;;;;79.75;23.98;;;7.40;99.90;;;;;;5050292;28;20032;-69
2021/10/07 03:44:00;;;;;;;60.70;22.40;;;7.40;99.90;;;;;;5050188;28;20057;-70
2021/10/07 03:46:26;;;;;;;63.58;21.60;;;7.40;99.90;;;;;;5049889;28;20495;-70
2021/10/07 03:48:51;;;;;;;70.57;24.13;;;7.40;99.90;;;;;;5041622;28;20140;-70
2021/10/07 03:51:17;;;;;;;64.90;26.58;;;7.40;99.90;;;;;;5050634;28;20079;-70
2021/10/07 03:53:43;;;;;;;123.03;32.20;;;7.50;99.90;;;;;;5049871;28;20052;-69
2021/10/07 03:56:09;;;;;;;62.80;26.80;;;7.50;99.90;;;;;;5050474;28;20074;-70
2021/10/07 03:58:35;;;;;;;36.10;24.13;;;7.50;99.90;;;;;;5050327;28;20502;-70
2021/10/07 04:01:04;;;;;;;93.25;27.33;;;7.60;99.90;;;;;;5047748;28;20043;-70
2021/10/07 04:03:29;;;;;;;138.10;28.67;;;7.60;99.90;;;;;;5047566;28;20037;-70
2021/10/07 04:05:57;;;;;;;170.88;29.77;;;7.60;99.90;;;;;;5033482;28;20803;-70
2021/10/07 04:08:23;;;;;;;145.75;30.08;;;7.60;99.90;;;;;;5050649;28;20056;-75
2021/10/07 04:10:52;;;;;;;168.13;28.58;;;7.60;99.90;;;;;;5031387;28;20047;-76
2021/10/07 04:13:23;;;;;;;139.50;28.35;;;7.60;99.90;;;;;;5030866;28;20048;-76
2021/10/07 04:15:50;;;;;;;173.07;28.30;;;7.60;99.90;;;;;;5047708;28;20044;-71
2021/10/07 04:18:19;;;;;;;120.53;29.63;;;7.50;99.90;;;;;;5033712;28;20842;-71
2021/10/07 04:20:47;;;;;;;128.55;24.25;;;7.60;99.90;;;;;;5050317;28;20044;-71
2021/10/07 04:23:14;;;;;;;100.03;29.35;;;7.60;99.90;;;;;;5049464;28;20544;-70
2021/10/07 04:25:39;;;;;;;86.55;26.73;;;7.60;99.90;;;;;;5030192;28;20082;-71
2021/10/07 04:28:06;;;;;;;119.13;25.27;;;7.60;99.90;;;;;;5030022;28;20045;-71
2021/10/07 04:30:34;;;;;;;92.18;24.42;;;7.80;99.90;;;;;;5049239;28;20707;-70
2021/10/07 04:33:04;;;;;;;74.15;24.50;;;7.70;99.90;;;;;;5049206;28;20040;-71
2021/10/07 04:35:31;;;;;;;93.47;25.98;;;7.70;99.90;;;;;;5050121;28;20123;-71
2021/10/07 04:37:58;;;;;;;56.28;23.10;;;7.70;99.90;;;;;;5049740;28;20374;-71
2021/10/07 04:40:25;;;;;;;92.72;24.95;;;7.60;99.90;;;;;;5049853;28;20132;-71
2021/10/07 04:42:51;;;;;;;46.72;20.45;;;7.70;99.90;;;;;;5049403;28;20040;-71
2021/10/07 04:45:18;;;;;;;91.57;28.65;;;7.60;99.90;;;;;;5028623;28;20036;-72
2021/10/07 04:47:43;;;;;;;44.72;20.85;;;7.60;99.90;;;;;;5045107;28;20495;-71
2021/10/07 04:50:09;;;;;;;65.28;23.60;;;7.70;99.90;;;;;;5045080;28;20051;-71
2021/10/07 04:52:35;;;;;;;83.38;25.70;;;7.70;99.90;;;;;;5045212;28;20101;-71
2021/10/07 04:55:05;;;;;;;75.72;24.23;;;7.70;99.90;;;;;;5045497;28;20187;-71
2021/10/07 04:57:35;;;;;;;65.40;22.48;;;7.60;99.90;;;;;;5045831;28;20128;-71
2021/10/07 05:00:04;;;;;;;62.65;22.80;;;7.70;99.90;;;;;;5045128;28;20052;-71
2021/10/07 05:02:29;;;;;;;84.72;25.25;;;7.60;99.90;;;;;;5012111;28;20585;-71
2021/10/07 05:04:55;;;;;;;69.43;22.65;;;7.60;99.90;;;;;;5012709;28;20037;-71
2021/10/07 05:07:21;;;;;;;73.13;24.60;;;7.60;99.90;;;;;;5029158;28;20048;-71
2021/10/07 05:09:47;;;;;;;43.17;19.50;;;7.70;99.90;;;;;;5045538;28;20041;-71
2021/10/07 05:12:13;;;;;;;49.03;19.30;;;7.70;99.90;;;;;;5027972;28;20122;-71
2021/10/07 05:14:39;;;;;;;75.85;22.30;;;7.70;99.90;;;;;;5045570;28;20044;-71
2021/10/07 05:17:05;;;;;;;73.97;20.20;;;7.70;99.90;;;;;;5011552;28;20037;-71
2021/10/07 05:19:31;;;;;;;62.33;20.20;;;7.70;99.90;;;;;;5028478;28;20044;-71
2021/10/07 05:21:57;;;;;;;165.30;27.90;;;7.70;99.90;;;;;;5012938;28;20122;-71
2021/10/07 05:24:23;;;;;;;52.90;20.13;;;7.70;99.90;;;;;;5024529;28;20085;-71
2021/10/07 05:26:48;;;;;;;128.25;25.55;;;7.70;99.90;;;;;;5045167;28;20036;-71
2021/10/07 05:29:14;;;;;;;48.95;18.67;;;7.80;99.90;;;;;;5039529;28;20037;-71
2021/10/07 05:31:40;;;;;;;34.47;15.85;;;7.70;99.90;;;;;;5022552;28;20518;-71
2021/10/07 05:34:06;;;;;;;39.10;16.17;;;7.80;99.90;;;;;;5045235;28;20041;-71
2021/10/07 05:36:35;;;;;;;45.35;15.40;;;7.80;99.90;;;;;;5028097;28;20110;-71
2021/10/07 05:39:00;;;;;;;58.00;17.02;;;7.80;99.90;;;;;;5011672;28;20056;-71
2021/10/07 05:41:26;;;;;;;51.70;17.05;;;7.80;99.90;;;;;;5026898;28;20057;-71
2021/10/07 05:43:52;;;;;;;39.75;16.27;;;7.80;99.90;;;;;;5020451;28;20809;-71
2021/10/07 05:46:18;;;;;;;44.25;14.30;;;7.70;99.90;;;;;;5023718;28;20551;-71
2021/10/07 05:48:43;;;;;;;40.00;14.75;;;7.80;99.90;;;;;;5026806;28;20662;-71
2021/10/07 05:51:09;;;;;;;40.28;14.90;;;7.70;99.90;;;;;;5029075;28;20048;-71
2021/10/07 05:53:35;;;;;;;31.00;14.45;;;7.80;99.90;;;;;;5021902;28;20051;-72
2021/10/07 05:56:06;;;;;;;162.52;23.90;;;7.90;99.90;;;;;;5044944;28;20033;-71
2021/10/07 05:58:33;;;;;;;141.98;21.40;;;7.80;99.90;;;;;;5038984;28;20045;-71
2021/10/07 06:00:59;;;;;;;21.20;12.15;;;7.80;99.90;;;;;;5038591;28;20064;-71
2021/10/07 06:03:24;;;;;;;27.15;13.45;;;7.80;99.90;;;;;;5051966;28;20068;-71
2021/10/07 06:05:50;;;;;;;37.30;14.65;;;7.80;99.90;;;;;;5027620;28;20065;-71
2021/10/07 06:08:16;;;;;;;39.40;16.02;;;7.80;99.90;;;;;;5029557;28;20691;-71
2021/10/07 06:10:42;;;;;;;42.22;14.18;;;7.80;99.90;;;;;;5035915;28;20057;-71
2021/10/07 06:13:08;;;;;;;35.05;13.60;;;7.80;99.90;;;;;;5049531;28;20710;-71
2021/10/07 06:15:33;;;;;;;40.55;14.88;;;7.80;99.90;;;;;;5049154;28;20048;-71
2021/10/07 06:18:00;;;;;;;35.65;14.32;;;7.80;99.90;;;;;;5030400;28;20508;-71
2021/10/07 06:22:52;;;;;;;81.35;17.52;;;7.90;99.90;;;;;;5048442;28;20530;-71
2021/10/07 06:25:17;;;;;;;56.33;16.67;;;7.90;99.90;;;;;;5048042;28;20730;-71
2021/10/07 06:27:43;;;;;;;30.60;14.23;;;7.90;99.90;;;;;;5012488;28;20462;-71
2021/10/07 06:30:10;;;;;;;190.05;23.77;;;7.90;99.90;;;;;;5028545;28;20176;-71
2021/10/07 06:32:36;;;;;;;69.53;17.30;;;7.90;99.90;;;;;;5030345;28;20050;-75
2021/10/07 06:35:03;;;;;;;282.02;23.52;;;7.90;99.90;;;;;;5054999;28;20534;-75
2021/10/07 06:37:29;;;;;;;197.40;20.52;;;8.00;99.90;;;;;;5048854;28;20041;-76
2021/10/07 06:39:54;;;;;;;102.50;15.30;;;8.00;99.90;;;;;;5047679;28;20036;-71
2021/10/07 06:42:20;;;;;;;79.93;14.77;;;8.00;99.90;;;;;;5048009;28;20048;-71
2021/10/07 06:44:46;;;;;;;115.90;15.13;;;8.00;99.90;;;;;;5046957;28;20049;-71
2021/10/07 06:47:12;;;;;;;146.93;16.05;;;8.10;99.90;;;;;;5014551;28;20052;-71
2021/10/07 06:49:37;;;;;;;90.07;13.35;;;8.10;99.90;;;;;;5009102;28;20128;-71
2021/10/07 06:52:03;;;;;;;113.93;11.23;;;8.10;99.90;;;;;;5031405;28;20035;-71
2021/10/07 06:54:30;;;;;;;165.00;17.02;;;8.10;99.90;;;;;;5042906;28;20041;-71
2021/10/07 06:56:55;;;;;;;100.38;10.88;;;8.10;99.90;;;;;;5026932;28;20541;-71
2021/10/07 06:59:21;;;;;;;285.42;18.10;;;8.10;99.90;;;;;;5027789;28;20124;-71
2021/10/07 07:01:47;;;;;;;83.70;9.15;;;8.10;99.90;;;;;;5042243;28;20522;-71
2021/10/07 07:04:16;;;;;;;112.30;11.35;;;8.10;99.90;;;;;;5026452;28;20094;-71
2021/10/07 07:06:43;;;;;;;105.63;13.80;;;8.10;99.90;;;;;;5048033;28;20048;-71
2021/10/07 07:09:10;;;;;;;273.80;17.70;;;8.20;99.90;;;;;;5025907;28;20045;-71
2021/10/07 07:11:36;;;;;;;37.63;8.55;;;8.20;99.90;;;;;;5053204;28;20041;-71
2021/10/07 07:14:02;;;;;;;85.82;10.13;;;8.20;99.90;;;;;;5046134;28;20103;-71
2021/10/07 07:16:29;;;;;;;276.95;16.20;;;8.20;99.90;;;;;;5031616;28;20053;-72
2021/10/07 07:18:55;;;;;;;259.40;18.77;;;8.30;99.90;;;;;;5034330;28;20037;-72
2021/10/07 07:21:23;;;;;;;277.33;16.48;;;8.30;99.90;;;;;;5046337;28;20099;-75
2021/10/07 07:23:52;;;;;;;138.45;13.18;;;8.40;99.90;;;;;;5030232;28;20037;-71
2021/10/07 07:26:18;;;;;;;172.18;13.82;;;8.40;99.90;;;;;;5047629;28;20060;-71
2021/10/07 07:28:44;;;;;;;133.60;10.80;;;8.40;99.90;;;;;;5032315;28;20458;-71
2021/10/07 07:31:10;;;;;;;102.80;9.90;;;8.40;99.90;;;;;;5030943;28;20499;-72
2021/10/07 07:33:36;;;;;;;113.05;12.45;;;8.50;99.90;;;;;;5033470;28;20673;-71
2021/10/07 07:36:02;;;;;;;90.35;11.75;;;8.50;99.90;;;;;;5023844;28;20115;-69
2021/10/07 07:38:34;;;;;;;69.93;9.65;;;8.50;99.90;;;;;;5035976;28;20048;-71
2021/10/07 07:41:00;;;;;;;78.70;9.73;;;8.50;99.90;;;;;;5046247;28;20052;-71
2021/10/07 07:43:26;;;;;;;84.95;10.25;;;8.60;99.90;;;;;;5008148;28;1331847;-71
2021/10/07 07:45:52;;;;;;;83.97;10.20;;;8.70;99.90;;;;;;5051648;28;20044;-71
2021/10/07 07:48:18;;;;;;;73.30;10.18;;;8.70;99.90;;;;;;5053473;28;20550;-70
2021/10/07 07:50:47;;;;;;;100.00;12.23;;;8.80;99.90;;;;;;5037876;28;20069;-71
2021/10/07 07:53:13;;;;;;;95.85;11.73;;;8.80;99.90;;;;;;5060561;28;20080;-71
2021/10/07 07:55:40;;;;;;;120.95;11.90;;;8.90;99.90;;;;;;5037119;28;20033;-70
2021/10/07 07:58:06;;;;;;;80.60;10.70;;;8.90;99.90;;;;;;5048454;28;20131;-70
2021/10/07 08:00:38;;;;;;;119.30;12.82;;;9.00;99.90;;;;;;5051226;28;20040;-70
2021/10/07 08:03:05;;;;;;;81.07;11.82;;;9.00;99.90;;;;;;5050185;28;20055;-70
2021/10/07 08:05:33;;;;;;;89.93;10.98;;;9.10;99.90;;;;;;5034597;28;20045;-71
2021/10/07 08:07:59;;;;;;;79.50;10.13;;;9.10;99.90;;;;;;5037244;28;20135;-70
2021/10/07 08:10:25;;;;;;;60.50;9.75;;;9.10;99.90;;;;;;5037635;28;20123;-71
2021/10/07 08:12:51;;;;;;;50.67;9.45;;;9.10;99.90;;;;;;5044456;28;20044;-70
2021/10/07 08:15:17;;;;;;;74.20;10.00;;;9.20;99.90;;;;;;5064648;28;20047;-70
2021/10/07 08:17:43;;;;;;;71.85;10.30;;;9.20;99.90;;;;;;5049797;28;20503;-70
2021/10/07 08:20:11;;;;;;;98.65;11.18;;;9.30;99.90;;;;;;5046112;28;20125;-70
2021/10/07 08:22:38;;;;;;;29.48;7.20;;;9.30;99.90;;;;;;5029321;28;20040;-70
2021/10/07 08:25:05;;;;;;;86.00;10.55;;;9.40;99.90;;;;;;5046010;28;20495;-70
2021/10/07 08:27:30;;;;;;;80.55;11.95;;;9.40;99.90;;;;;;5044439;28;20040;-70
2021/10/07 08:29:56;;;;;;;67.07;9.68;;;9.40;99.90;;;;;;5029674;28;20126;-70
2021/10/07 08:32:23;;;;;;;48.05;8.60;;;9.40;99.90;;;;;;5028497;28;20063;-70
2021/10/07 08:34:49;;;;;;;48.45;9.98;;;9.40;99.90;;;;;;5037588;28;20062;-71
2021/10/07 08:37:15;;;;;;;23.90;7.75;;;9.40;99.90;;;;;;5032881;28;20036;-70
2021/10/07 08:39:40;;;;;;;109.63;13.63;;;9.50;99.90;;;;;;5049265;28;20055;-70
2021/10/07 08:42:07;;;;;;;30.15;8.52;;;9.50;99.90;;;;;;5048953;28;20050;-70
2021/10/07 08:44:32;;;;;;;82.72;11.57;;;9.50;99.90;;;;;;5044773;28;20048;-70
2021/10/07 08:46:59;;;;;;;66.55;11.45;;;9.60;99.90;;;;;;5027018;28;20060;-70
2021/10/07 08:49:27;;;;;;;68.63;11.38;;;9.60;99.90;;;;;;5029351;28;20037;-70
2021/10/07 08:51:54;;;;;;;190.48;17.50;;;9.60;99.90;;;;;;5045709;28;20040;-71
2021/10/07 08:54:20;;;;;;;74.05;10.90;;;9.70;99.90;;;;;;5043802;28;20049;-70
2021/10/07 08:56:47;;;;;;;144.55;13.70;;;9.70;99.90;;;;;;5024593;28;20101;-70
2021/10/07 08:59:18;;;;;;;125.93;14.10;;;9.80;99.90;;;;;;5028519;28;20036;-70
2021/10/07 09:01:49;;;;;;;146.95;12.85;;;9.80;99.90;;;;;;5012940;28;20049;-70
2021/10/07 09:04:19;;;;;;;72.47;11.38;;;9.80;99.90;;;;;;5026440;28;20045;-71
2021/10/07 09:06:47;;;;;;;164.70;15.85;;;9.90;99.90;;;;;;5028176;28;20146;-71
2021/10/07 09:09:13;;;;;;;90.40;13.30;;;9.90;99.90;;;;;;5046753;28;20091;-71
2021/10/07 09:11:39;;;;;;;90.15;13.88;;;9.90;99.90;;;;;;5044376;28;20049;-70
2021/10/07 09:14:08;;;;;;;67.63;11.40;;;9.90;99.90;;;;;;5044699;28;20033;-70
2021/10/07 09:16:46;;;;;;;64.40;13.18;;;9.90;99.90;;;;;;5024892;28;20045;-70
2021/10/07 09:19:19;;;;;;;75.75;13.80;;;10.00;99.90;;;;;;5043629;28;20052;-70
2021/10/07 09:21:47;;;;;;;66.57;14.18;;;10.00;99.90;;;;;;5037863;28;20068;-74
2021/10/07 09:24:38;;;;;;;53.63;12.45;;;10.10;99.90;;;;;;5008409;28;20037;-71
2021/10/07 09:27:34;;;;;;;66.05;13.13;;;10.10;99.90;;;;;;5043950;28;20067;-70
2021/10/07 09:30:04;;;;;;;63.85;14.57;;;10.10;99.90;;;;;;5072355;28;20057;-70
2021/10/07 09:32:50;;;;;;;28.77;11.48;;;10.10;99.90;;;;;;5043581;28;20166;-71
2021/10/07 09:35:19;;;;;;;48.25;14.50;;;10.10;99.90;;;;;;5014019;28;20079;-71
2021/10/07 09:37:47;;;;;;;51.63;15.30;;;10.10;99.90;;;;;;5039623;28;20124;-71
2021/10/07 09:40:21;;;;;;;84.63;19.00;;;10.20;99.90;;;;;;5055996;28;20052;-71
2021/10/07 09:42:59;;;;;;;74.95;18.65;;;10.30;99.90;;;;;;5043514;28;20088;-71
2021/10/07 09:45:30;;;;;;;83.90;19.13;;;10.30;99.90;;;;;;5027537;28;20037;-71
2021/10/07 09:47:58;;;;;;;98.13;17.95;;;10.40;99.90;;;;;;5022520;28;20199;-71
2021/10/07 09:50:30;;;;;;;32.45;14.38;;;10.50;99.90;;;;;;5025180;28;20571;-71
2021/10/07 09:53:04;;;;;;;72.10;16.17;;;10.50;99.90;;;;;;5018383;28;20037;-71
2021/10/07 09:55:35;;;;;;;44.92;15.77;;;10.50;99.90;;;;;;5040023;28;20088;-71
2021/10/07 09:58:16;;;;;;;77.88;17.00;;;10.60;99.90;;;;;;5061956;28;20060;-72
2021/10/07 10:00:48;;;;;;;43.00;16.60;;;10.60;99.90;;;;;;5056404;28;20041;-71
2021/10/07 10:03:15;;;;;;;58.63;17.98;;;10.60;99.90;;;;;;5022940;28;20077;-71
2021/10/07 10:05:42;;;;;;;48.53;16.67;;;10.60;99.90;;;;;;5026559;28;20033;-71
2021/10/07 10:08:11;;;;;;;47.55;17.17;;;10.60;99.90;;;;;;5023016;28;20069;-72
2021/10/07 10:10:38;;;;;;;49.10;17.75;;;10.60;99.90;;;;;;5025744;28;20045;-72
2021/10/07 10:13:05;;;;;;;45.05;16.10;;;10.60;99.90;;;;;;5037565;28;20121;-71
2021/10/07 10:15:35;;;;;;;34.30;17.73;;;10.60;99.90;;;;;;5026341;28;21276;-71
2021/10/07 10:18:12;;;;;;;77.72;21.23;;;10.60;99.90;;;;;;5005970;28;20057;-71
2021/10/07 10:20:42;;;;;;;39.20;19.13;;;10.60;99.90;;;;;;5043900;28;20049;-72
2021/10/07 10:23:14;;;;;;;45.83;20.58;;;10.70;99.90;;;;;;5041615;28;20045;-72
2021/10/07 10:26:00;;;;;;;40.90;20.70;;;10.70;99.90;;;;;;5039993;28;20048;-72
2021/10/07 10:28:42;;;;;;;50.05;21.02;;;10.80;99.90;;;;;;5044847;28;20064;-71
2021/10/07 10:31:10;;;;;;;33.85;20.02;;;10.80;99.90;;;;;;5045548;28;20044;-71
2021/10/07 10:33:39;;;;;;;54.35;21.90;;;10.80;99.90;;;;;;5046620;28;20052;-72
2021/10/07 10:36:23;;;;;;;34.05;19.52;;;10.80;99.90;;;;;;5041382;28;20179;-72
2021/10/07 10:39:11;;;;;;;59.20;18.77;;;10.90;99.90;;;;;;5046689;28;20048;-72
2021/10/07 10:42:08;;;;;;;47.95;21.55;;;10.90;99.90;;;;;;5062628;28;20045;-72
2021/10/07 10:44:34;;;;;;;48.40;21.20;;;11.00;99.90;;;;;;5065148;28;20063;-72
2021/10/07 10:47:06;;;;;;;53.30;20.90;;;11.00;99.90;;;;;;5063939;28;20048;-72
2021/10/07 10:49:52;;;;;;;46.65;20.88;;;11.10;99.90;;;;;;5046208;28;20049;-72
2021/10/07 10:52:22;;;;;;;28.17;17.90;;;11.10;99.90;;;;;;5044959;28;20824;-73
2021/10/07 10:54:50;;;;;;;31.88;18.60;;;11.20;99.90;;;;;;5063002;28;20041;-73
2021/10/07 10:57:36;;;;;;;34.67;18.58;;;11.30;99.90;;;;;;5047477;28;20048;-72
2021/10/07 11:00:30;;;;;;;35.80;18.08;;;11.30;99.90;;;;;;5020773;28;20056;-72
2021/10/07 11:03:11;;;;;;;31.80;19.25;;;11.30;99.90;;;;;;5039334;28;20132;-72
2021/10/07 11:05:54;;;;;;;28.52;18.67;;;11.30;99.90;;;;;;5046380;28;20049;-72
2021/10/07 11:08:21;;;;;;;37.65;19.60;;;11.30;99.90;;;;;;5029066;28;20048;-72
2021/10/07 11:10:52;;;;;;;33.47;20.23;;;11.30;99.90;;;;;;5026452;28;20446;-72
2021/10/07 11:13:27;;;;;;;38.22;20.45;;;11.30;99.90;;;;;;5042539;28;20136;-72
2021/10/07 11:16:00;;;;;;;33.58;19.58;;;11.20;99.90;;;;;;5023009;28;20049;-72
2021/10/07 11:18:31;;;;;;;31.27;19.15;;;11.30;99.90;;;;;;5061205;28;20055;-72
2021/10/07 11:21:05;;;;;;;36.75;20.80;;;11.30;99.90;;;;;;5032024;28;20043;-71
2021/10/07 11:23:32;;;;;;;37.35;21.38;;;11.30;99.90;;;;;;5045491;28;20049;-72
2021/10/07 11:26:05;;;;;;;32.05;20.13;;;11.30;99.90;;;;;;5002321;28;20075;-72
2021/10/07 11:28:33;;;;;;;32.72;20.80;;;11.40;99.90;;;;;;5047493;28;20044;-71
2021/10/07 11:31:11;;;;;;;31.23;19.33;;;11.50;99.90;;;;;;5025922;28;20038;-71
2021/10/07 11:33:38;;;;;;;30.67;18.65;;;11.50;99.90;;;;;;5013235;28;20729;-71
2021/10/07 11:36:09;;;;;;;33.65;20.63;;;11.50;99.90;;;;;;5042887;28;20510;-71
2021/10/07 11:38:44;;;;;;;30.00;19.27;;;11.50;99.90;;;;;;5064424;28;20569;-71
2021/10/07 11:41:11;;;;;;;33.08;21.38;;;11.60;99.90;;;;;;5021786;28;20503;-70
2021/10/07 11:43:38;;;;;;;30.55;19.92;;;11.50;99.90;;;;;;5036819;28;20052;-70
2021/10/07 11:46:06;;;;;;;31.05;19.65;;;11.60;99.90;;;;;;5044286;28;20050;-71
2021/10/07 11:48:32;;;;;;;29.02;19.42;;;11.60;99.90;;;;;;5028763;28;20090;-70
2021/10/07 11:51:06;;;;;;;32.55;21.30;;;11.60;99.90;;;;;;5026023;28;20048;-70
2021/10/07 11:53:43;;;;;;;33.67;21.08;;;11.60;99.90;;;;;;5042426;28;20135;-71
2021/10/07 11:56:22;;;;;;;34.88;22.08;;;11.60;99.90;;;;;;5033970;28;20056;-70
2021/10/07 11:58:53;;;;;;;29.87;19.00;;;11.70;99.90;;;;;;5061202;28;20069;-71
2021/10/07 12:01:22;;;;;;;35.22;21.67;;;11.70;99.90;;;;;;5049360;28;20759;-70
2021/10/07 12:03:48;;;;;;;38.80;23.30;;;11.70;99.90;;;;;;5050618;28;20052;-70
2021/10/07 12:06:16;;;;;;;30.48;21.00;;;11.70;99.90;;;;;;5051966;28;20041;-70
2021/10/07 12:08:47;;;;;;;32.15;21.27;;;11.80;99.90;;;;;;5067664;28;20047;-70
2021/10/07 12:11:18;;;;;;;30.77;21.38;;;11.80;99.90;;;;;;5051255;28;20105;-70
2021/10/07 12:13:49;;;;;;;37.38;21.52;;;11.80;99.90;;;;;;5050408;28;20143;-70
2021/10/07 12:16:17;;;;;;;31.45;21.15;;;11.80;99.90;;;;;;5067260;28;20044;-70
2021/10/07 12:18:50;;;;;;;35.20;21.02;;;11.80;99.90;;;;;;5067738;28;20052;-71
2021/10/07 12:21:20;;;;;;;36.10;20.48;;;11.80;99.90;;;;;;5049944;28;20554;-71
2021/10/07 12:23:46;;;;;;;31.95;19.88;;;11.80;99.90;;;;;;5049512;28;20418;-71
2021/10/07 12:26:12;;;;;;;32.42;20.55;;;11.80;99.90;;;;;;5015075;28;20049;-71
2021/10/07 12:28:42;;;;;;;32.05;19.38;;;11.90;99.90;;;;;;5050270;28;20055;-71
2021/10/07 12:31:08;;;;;;;;;;;11.90;99.90;;;;;;5051356;28;20114;-71
2021/10/07 12:33:34;;;;;;;34.28;20.50;;;11.90;99.90;;;;;;5051412;28;19924;-71
2021/10/07 12:36:00;;;;;;;30.20;19.40;;;11.80;99.90;;;;;;5034292;28;20587;-72
2021/10/07 12:38:27;;;;;;;35.08;21.73;;;11.80;99.90;;;;;;5034591;28;20080;-70
2021/10/07 12:40:56;;;;;;;40.78;21.90;;;11.70;99.90;;;;;;5051047;28;20507;-71
2021/10/07 12:43:22;;;;;;;35.83;21.00;;;11.80;99.90;;;;;;5051069;28;20494;-71
2021/10/07 12:46:24;;;;;;;34.95;20.65;;;11.70;99.90;;;;;;5033810;28;20291;-71
2021/10/07 12:48:56;;;;;;;39.92;22.75;;;11.80;99.90;;;;;;5024635;28;20041;-71